»·PEaware :: N72DM KSNA-KRNM

N72DM :: KSNA-KRNM

FLIGHT INFORMATION

Flight Status: Arrived
Operator: Privately registered:
United States
More flights under this callsign
Pilot: Roman S. (31940)
Aircraft: PIPER PA-28 CHEROKEE ARCHER
(PA28)
More flights by this aircraft type
Origin: KSNA John Wayne-Orange Co
United States
Destination: KRNM Ramona
United States
More flights between these airports :: More routes between these airports
Route:
File this flight plan on PilotEdge
Remarks: newport
Altitude:
(Current/Filed)
0ft
Speed:
(Current/Filed)
0kts
Departed: 13-Jan-21 05:00 PM
Arrived: 13-Jan-21 05:39 PM
Distance/Time
Traveled:
61nm/0:38
Distance/Time
To Go:
Arrived

Flight Plot

Page will automatically refresh every two minutes.


Map Options




Map Legend


Flown Route
Filed Route
Departure Airport
Arrival Airport
Navaid (VOR, NDB)
Fix

Horizontal Profiles

Position Reports

Time Latitude Longitude Heading Altitude Ground
Speed
13-Jan-21 16:47 33.675311 -117.871833 356 52ft 0kts
13-Jan-21 16:48 33.675311 -117.871833 356 52ft 0kts
13-Jan-21 16:49 33.675311 -117.871833 356 52ft 0kts
13-Jan-21 16:50 33.675311 -117.871833 356 52ft 0kts
13-Jan-21 16:51 33.675311 -117.871833 356 52ft 0kts
13-Jan-21 16:52 33.675196 -117.871379 119 52ft 0kts
13-Jan-21 16:53 33.677935 -117.868958 29 50ft 33kts
13-Jan-21 16:54 33.681166 -117.866748 81 44ft 0kts
13-Jan-21 16:55 33.681166 -117.866748 81 44ft 0kts
13-Jan-21 16:56 33.681166 -117.866748 81 44ft 0kts
13-Jan-21 16:57 33.681166 -117.866748 81 44ft 0kts
13-Jan-21 16:58 33.680138 -117.864148 213 45ft 0kts
13-Jan-21 16:59 33.673497 -117.867784 201 217ft 67kts
13-Jan-21 17:00 33.658114 -117.865328 164 880ft 50kts
13-Jan-21 17:01 33.646053 -117.855255 135 1261ft 52kts
13-Jan-21 17:02 33.635276 -117.843212 125 1638ft 54kts
13-Jan-21 17:03 33.623665 -117.831041 143 2063ft 58kts
13-Jan-21 17:04 33.609788 -117.823803 158 2480ft 42kts
13-Jan-21 17:05 33.595040 -117.819107 162 2674ft 61kts
13-Jan-21 17:06 33.575422 -117.812490 157 3143ft 83kts
13-Jan-21 17:07 33.549953 -117.794041 136 3377ft 113kts
13-Jan-21 17:08 33.528975 -117.767113 128 3886ft 108kts
13-Jan-21 17:09 33.508972 -117.736745 123 3802ft 135kts
13-Jan-21 17:10 33.485980 -117.701775 131 3540ft 135kts
13-Jan-21 17:11 33.462840 -117.666480 104 2991ft 142kts
13-Jan-21 17:12 33.434610 -117.650694 163 3677ft 113kts
13-Jan-21 17:13 33.404078 -117.635887 152 3872ft 126kts
13-Jan-21 17:14 33.370382 -117.613052 145 3246ft 140kts
13-Jan-21 17:15 33.346160 -117.588246 134 3683ft 126kts
13-Jan-21 17:16 33.321342 -117.557948 133 3743ft 119kts
13-Jan-21 17:17 33.296639 -117.528277 133 3710ft 125kts
13-Jan-21 17:18 33.269476 -117.498553 139 3225ft 141kts
13-Jan-21 17:19 33.247017 -117.470681 125 3866ft 106kts
13-Jan-21 17:20 33.227712 -117.434792 116 3544ft 117kts
13-Jan-21 17:21 33.207609 -117.401373 128 3522ft 121kts
13-Jan-21 17:22 33.187546 -117.368462 113 3589ft 118kts
13-Jan-21 17:23 33.172808 -117.331326 116 3489ft 120kts
13-Jan-21 17:24 33.161399 -117.294301 109 3455ft 134kts
13-Jan-21 17:25 33.147179 -117.256279 117 3570ft 118kts
13-Jan-21 17:26 33.129961 -117.220402 123 3429ft 127kts
13-Jan-21 17:27 33.112556 -117.187812 120 3771ft 112kts
13-Jan-21 17:28 33.098788 -117.154395 117 4101ft 111kts
13-Jan-21 17:29 33.086158 -117.116256 97 3698ft 134kts
13-Jan-21 17:30 33.077989 -117.074497 107 3515ft 127kts
13-Jan-21 17:31 33.066236 -117.035831 108 3548ft 121kts
13-Jan-21 17:32 33.058922 -116.996282 101 3506ft 124kts
13-Jan-21 17:33 33.052393 -116.957267 105 2547ft 105kts
13-Jan-21 17:34 33.050019 -116.930858 93 2405ft 72kts
13-Jan-21 17:36 33.049393 -116.907261 86 2408ft 61kts
13-Jan-21 17:37 33.047223 -116.886157 159 2246ft 59kts
13-Jan-21 17:38 33.036466 -116.896475 278 1839ft 60kts
13-Jan-21 17:39 33.039198 -116.912431 8 1395ft 6kts
13-Jan-21 17:40 33.039572 -116.911019 14 1396ft 13kts
13-Jan-21 17:41 33.039899 -116.910571 88 1396ft 0kts
13-Jan-21 17:42 33.039899 -116.910571 88 1396ft 0kts
13-Jan-21 17:43 33.039899 -116.910571 88 1396ft 0kts
13-Jan-21 17:44 33.039899 -116.910571 88 1396ft 0kts
13-Jan-21 17:45 33.039899 -116.910571 88 1396ft 0kts
13-Jan-21 17:46 33.039899 -116.910571 88 1396ft 0kts
13-Jan-21 17:47 33.039899 -116.910571 88 1396ft 0kts
13-Jan-21 17:48 33.039899 -116.910571 88 1396ft 0kts
13-Jan-21 17:49 33.039899 -116.910571 88 1396ft 0kts
13-Jan-21 17:50 33.039899 -116.910571 88 1396ft 0kts
13-Jan-21 17:51 33.039899 -116.910571 88 1396ft 0kts
13-Jan-21 17:52 33.039899 -116.910571 88 1396ft 0kts
13-Jan-21 17:53 33.039899 -116.910571 88 1396ft 0kts

Navigation Log

Ident Type
Flight plan parsing failed, navigation log unavailable